Weather at Lozen Heliport

Public forecast

Using degrees Celsius for public forecast. Weather courtesy of forecast.io.

Closest aviation weather report (METAR) to Lozen Heliport

Closest report is Sofia Airport, 6.1 nm (11.3 km) NW.

2022/12/03 13:00 (retrieved 13 minutes ago)

LBSF 031300Z 09006KT 9999 OVC017 07/04 Q1025 NOSIG

Closest aviation forecast (TAF) to Lozen Heliport

Closest forecast is Sofia Airport, 6.1 nm (11.3 km) NW.

2022/12/03 12:18 (retrieved 55 minutes ago)

TAF LBSF 031100Z 0312/0412 11010KT 9999 BKN012 BKN020 TEMPO 0322/0407 4000 BR OVC009